This is the latest recevied weather packets stored in our database for station/object KE0PRS. If no packets are shown the sender has not sent any weather packets the latest 1 day(s).
| Time | Temp. | Humidity | Pressure | Rain* | Wind** | Luminosity | Snow |
|---|---|---|---|---|---|---|---|
| 1777987393 | 10.56° C | 53% | 1011.9 hPa | 0 mm | 0.89 m/s, 93° | 67 W/m² | - |
| 1777987090 | 10.56° C | 53% | 1011.9 hPa | 0 mm | 1.34 m/s, 82° | 44 W/m² | - |
| 1777986788 | 10.56° C | 52% | 1011.8 hPa | 0 mm | 0.89 m/s, 139° | 32 W/m² | - |
| 1777986485 | 10.56° C | 53% | 1011.6 hPa | 0 mm | 0.89 m/s, 81° | 26 W/m² | - |
| 1777986186 | 10.56° C | 53% | 1011.4 hPa | 0 mm | 0.89 m/s, 115° | 26 W/m² | - |
| 1777985880 | 10.56° C | 53% | 1011.4 hPa | 0 mm | 0.45 m/s, 156° | 35 W/m² | - |
| 1777985577 | 10.56° C | 53% | 1011.2 hPa | 0 mm | 0 m/s | 30 W/m² | - |
| 1777985274 | 10.56° C | 53% | 1011.1 hPa | 0 mm | 3.13 m/s, 25° | 26 W/m² | - |
| 1777984971 | 10.56° C | 53% | 1010.9 hPa | 0 mm | 1.34 m/s, 112° | 25 W/m² | - |
| 1777984666 | 10.56° C | 53% | 1010.8 hPa | 0 mm | 1.34 m/s, 125° | 22 W/m² | - |
| 1777984363 | 10.56° C | 53% | 1010.9 hPa | 0 mm | 0.89 m/s, 323° | 27 W/m² | - |
| 1777984059 | 10.56° C | 53% | 1010.7 hPa | 0 mm | 2.68 m/s, 36° | 23 W/m² | - |
| 1777983757 | 10.56° C | 53% | 1010.6 hPa | 0 mm | 2.24 m/s, 121° | 20 W/m² | - |
| 1777983453 | 10.56° C | 53% | 1010.5 hPa | 0 mm | 1.79 m/s, 83° | 12 W/m² | - |
| 1777983150 | 10.56° C | 52% | 1009.9 hPa | 0 mm | 2.68 m/s, 97° | 14 W/m² | - |
| 1777982846 | 10.56° C | 52% | 1010 hPa | 0 mm | 3.58 m/s, 65° | 12 W/m² | - |
| 1777982543 | 10.56° C | 52% | 1010.2 hPa | 0 mm | 1.79 m/s, 93° | 11 W/m² | - |
| 1777982241 | 10.56° C | 52% | 1010.3 hPa | 0 mm | 0.89 m/s, 51° | 8 W/m² | - |
| 1777981939 | 10.56° C | 52% | 1010.2 hPa | 0 mm | 3.58 m/s, 74° | 4 W/m² | - |
| 1777981636 | 10.56° C | 51% | 1010.5 hPa | 0 mm | 1.34 m/s, 84° | 3 W/m² | - |
| 1777981332 | 10.56° C | 51% | 1010.2 hPa | 0 mm | 2.68 m/s, 64° | 2 W/m² | - |
| 1777981029 | 10.56° C | 50% | 1010.1 hPa | 0 mm | 1.79 m/s, 17° | 1 W/m² | - |
| 1777980726 | 10.56° C | 50% | 1010 hPa | 0 mm | 4.02 m/s, 41° | 0 W/m² | - |
| 1777980422 | 10.56° C | 50% | 1010.1 hPa | 0 mm | 3.58 m/s, 18° | 0 W/m² | - |
| 1777980120 | 11.11° C | 49% | 1009.9 hPa | 0 mm | 5.36 m/s, 73° | 0 W/m² | - |
* Rain latest hour (hover to see other rain measurements)
** Current wind speed in m/s (hover to see current wind gust speed)